createdAt,value
2023-05-07T00:01:13.533Z,11.49
2023-05-07T00:03:40.220Z,11.35
2023-05-07T00:06:07.099Z,11.57
2023-05-07T00:08:34.210Z,11.61
2023-05-07T00:11:00.816Z,11.54
2023-05-07T00:13:28.318Z,11.44
2023-05-07T00:15:54.980Z,11.61
2023-05-07T00:18:23.527Z,11.62
2023-05-07T00:20:50.050Z,11.63
2023-05-07T00:23:16.488Z,11.82
2023-05-07T00:25:42.926Z,11.80
2023-05-07T00:28:09.446Z,11.71
2023-05-07T00:30:35.989Z,11.63
2023-05-07T00:33:02.614Z,11.56
2023-05-07T00:35:32.222Z,11.51
2023-05-07T00:37:59.011Z,11.61
2023-05-07T00:40:25.597Z,11.52
2023-05-07T00:42:53.873Z,11.59
2023-05-07T00:45:20.416Z,11.62
2023-05-07T00:47:47.553Z,11.70
2023-05-07T00:50:14.529Z,11.58
2023-05-07T00:52:42.543Z,11.48
2023-05-07T00:55:09.268Z,11.48
2023-05-07T00:57:41.512Z,11.53
2023-05-07T01:00:10.488Z,11.60
2023-05-07T01:02:37.376Z,11.55
2023-05-07T01:05:06.662Z,11.52
2023-05-07T01:07:35.682Z,11.56
2023-05-07T01:10:04.107Z,11.65
2023-05-07T01:12:31.765Z,11.40
2023-05-07T01:14:59.334Z,11.21
2023-05-07T01:17:25.999Z,11.15
2023-05-07T01:19:54.050Z,10.93
2023-05-07T01:22:34.958Z,11.05
2023-05-07T01:25:02.820Z,11.11
2023-05-07T01:27:30.888Z,11.19
2023-05-07T01:29:57.661Z,11.16
2023-05-07T01:32:36.722Z,10.97
2023-05-07T01:35:08.518Z,10.69
2023-05-07T01:37:35.057Z,10.57
2023-05-07T01:40:03.461Z,10.43
2023-05-07T01:42:30.633Z,10.31
2023-05-07T01:44:57.421Z,10.20
2023-05-07T01:47:24.952Z,10.20
2023-05-07T01:49:51.616Z,10.20
2023-05-07T01:52:18.294Z,10.24
2023-05-07T01:54:44.863Z,10.17
2023-05-07T01:57:11.308Z,10.14
2023-05-07T01:59:41.315Z,10.04
2023-05-07T02:02:07.948Z,9.91
2023-05-07T02:04:37.504Z,9.95
2023-05-07T02:07:04.003Z,9.88
2023-05-07T02:09:31.022Z,9.89
2023-05-07T02:11:57.923Z,9.90
2023-05-07T02:14:24.492Z,9.97
2023-05-07T02:16:51.055Z,9.85
2023-05-07T02:19:18.688Z,9.83
2023-05-07T02:21:45.252Z,9.74
2023-05-07T02:24:11.710Z,9.70
2023-05-07T02:26:38.280Z,9.66
2023-05-07T02:29:04.779Z,9.73
2023-05-07T02:31:32.168Z,9.61
2023-05-07T02:33:59.269Z,9.70
2023-05-07T02:36:26.293Z,9.57
2023-05-07T02:39:04.836Z,9.58
2023-05-07T02:41:31.419Z,9.63
2023-05-07T02:43:57.881Z,9.58
2023-05-07T02:46:24.959Z,9.55
2023-05-07T02:48:58.985Z,9.59
2023-05-07T02:51:27.006Z,9.56
2023-05-07T02:53:56.050Z,9.56
2023-05-07T02:56:23.077Z,9.54
2023-05-07T02:58:49.524Z,9.58
2023-05-07T03:01:17.672Z,9.48
2023-05-07T03:03:51.233Z,9.56
2023-05-07T03:06:17.796Z,9.53
2023-05-07T03:08:44.929Z,9.40
2023-05-07T03:11:11.541Z,9.43
2023-05-07T03:13:37.993Z,9.56
2023-05-07T03:16:04.646Z,9.67
2023-05-07T03:18:31.155Z,9.77
2023-05-07T03:20:58.182Z,9.75
2023-05-07T03:23:25.197Z,9.68
2023-05-07T03:25:52.301Z,9.41
2023-05-07T03:28:19.025Z,9.37
2023-05-07T03:30:52.009Z,9.41
2023-05-07T03:33:18.503Z,9.23
2023-05-07T03:35:45.256Z,9.21
2023-05-07T03:38:14.496Z,9.25
2023-05-07T03:40:41.016Z,9.13
2023-05-07T03:43:07.498Z,9.00
2023-05-07T03:45:37.678Z,9.01
2023-05-07T03:48:12.056Z,9.10
2023-05-07T03:50:39.206Z,9.04
2023-05-07T03:53:06.648Z,8.96
2023-05-07T03:55:37.764Z,8.96
2023-05-07T03:58:04.999Z,8.92
2023-05-07T04:00:34.520Z,8.89
2023-05-07T04:03:01.025Z,8.90
2023-05-07T04:05:31.124Z,8.99
2023-05-07T04:08:01.506Z,9.11
2023-05-07T04:10:35.371Z,9.20
2023-05-07T04:13:06.520Z,9.26
2023-05-07T04:15:33.441Z,9.10
2023-05-07T04:18:00.315Z,9.02
2023-05-07T04:20:27.107Z,9.08
2023-05-07T04:23:01.619Z,9.18
2023-05-07T04:25:28.774Z,9.22
2023-05-07T04:28:01.951Z,9.24
2023-05-07T04:30:29.923Z,9.40
2023-05-07T04:32:57.231Z,9.31
2023-05-07T04:35:26.314Z,9.38
2023-05-07T04:37:53.262Z,9.25
2023-05-07T04:40:19.762Z,9.34
2023-05-07T04:42:46.343Z,9.50
2023-05-07T04:45:13.598Z,9.40
2023-05-07T04:47:42.945Z,9.49
2023-05-07T04:50:10.298Z,9.63
2023-05-07T04:52:37.746Z,9.69
2023-05-07T04:55:05.728Z,9.71
2023-05-07T04:57:37.117Z,9.86
2023-05-07T05:00:05.313Z,10.22
2023-05-07T05:02:34.276Z,10.38
2023-05-07T05:05:02.849Z,10.45
2023-05-07T05:07:29.480Z,10.49
2023-05-07T05:09:56.509Z,10.61
2023-05-07T05:12:23.329Z,10.52
2023-05-07T05:14:50.228Z,10.63
2023-05-07T05:17:17.417Z,10.49
2023-05-07T05:19:44.178Z,10.29
2023-05-07T05:22:10.645Z,10.21
2023-05-07T05:24:37.183Z,10.33
2023-05-07T05:27:03.846Z,10.62
2023-05-07T05:29:35.088Z,10.88
2023-05-07T05:32:02.060Z,10.98
2023-05-07T05:34:30.924Z,10.99
2023-05-07T05:36:59.501Z,10.95
2023-05-07T05:39:26.172Z,10.97
2023-05-07T05:41:52.668Z,11.28
2023-05-07T05:44:20.654Z,11.45
2023-05-07T05:46:47.224Z,12.04
2023-05-07T05:49:14.407Z,12.15
2023-05-07T05:51:41.184Z,12.51
2023-05-07T05:54:08.355Z,12.36
2023-05-07T05:56:34.923Z,12.25
2023-05-07T05:59:02.053Z,12.25
2023-05-07T06:01:28.593Z,12.57
2023-05-07T06:03:57.746Z,12.46
2023-05-07T06:06:24.266Z,12.44
2023-05-07T06:08:50.893Z,12.53
2023-05-07T06:11:21.962Z,12.60
2023-05-07T06:13:48.469Z,12.79
2023-05-07T06:16:16.120Z,12.79
2023-05-07T06:18:43.368Z,12.98
2023-05-07T06:21:10.956Z,13.33
2023-05-07T06:23:38.144Z,13.62
2023-05-07T06:26:05.366Z,13.94
2023-05-07T06:28:37.555Z,13.87
2023-05-07T06:31:13.869Z,13.83
2023-05-07T06:33:41.371Z,13.84
2023-05-07T06:36:08.087Z,13.71
2023-05-07T06:38:35.434Z,13.93
2023-05-07T06:41:01.924Z,14.00
2023-05-07T06:43:28.527Z,13.93
2023-05-07T06:46:07.468Z,13.86
2023-05-07T06:48:35.019Z,14.06
2023-05-07T06:51:05.428Z,14.25
2023-05-07T06:53:32.723Z,14.35
2023-05-07T06:56:01.070Z,14.29
2023-05-07T06:58:27.716Z,14.49
2023-05-07T07:00:54.166Z,14.66
2023-05-07T07:03:21.119Z,14.47
2023-05-07T07:05:47.978Z,14.40
2023-05-07T07:08:14.528Z,14.56
2023-05-07T07:10:41.453Z,14.48
2023-05-07T07:13:08.004Z,14.61
2023-05-07T07:15:34.623Z,14.66
2023-05-07T07:18:01.308Z,14.85
2023-05-07T07:20:27.831Z,14.80
2023-05-07T07:22:55.233Z,14.93
2023-05-07T07:25:21.783Z,14.73
2023-05-07T07:27:49.341Z,14.91
2023-05-07T07:30:16.591Z,14.88
2023-05-07T07:32:46.777Z,14.95
2023-05-07T07:35:13.300Z,14.94
2023-05-07T07:37:39.979Z,14.79
2023-05-07T07:40:07.457Z,15.25
2023-05-07T07:42:34.506Z,15.61
2023-05-07T07:45:01.876Z,15.66
2023-05-07T07:47:32.447Z,15.90
2023-05-07T07:49:58.922Z,15.84
2023-05-07T07:52:25.513Z,16.12
2023-05-07T07:54:52.164Z,16.10
2023-05-07T07:57:18.960Z,16.02
2023-05-07T07:59:46.602Z,16.28
2023-05-07T08:02:15.377Z,16.53
2023-05-07T08:04:42.895Z,16.52
2023-05-07T08:07:09.579Z,16.62
2023-05-07T08:09:40.109Z,16.61
2023-05-07T08:12:07.949Z,16.65
2023-05-07T08:14:35.682Z,16.91
2023-05-07T08:17:02.378Z,16.97
2023-05-07T08:19:29.072Z,17.09
2023-05-07T08:21:56.485Z,17.07
2023-05-07T08:24:24.699Z,16.75
2023-05-07T08:26:51.816Z,17.03
2023-05-07T08:29:18.375Z,16.93
2023-05-07T08:31:44.967Z,17.32
2023-05-07T08:34:11.438Z,17.46
2023-05-07T08:36:42.892Z,17.44
2023-05-07T08:39:11.214Z,17.88
2023-05-07T08:41:38.516Z,18.03
2023-05-07T08:44:12.367Z,18.43
2023-05-07T08:46:40.380Z,18.17
2023-05-07T08:49:06.979Z,18.37
2023-05-07T08:51:33.677Z,18.36
2023-05-07T08:54:00.569Z,18.52
2023-05-07T08:56:30.887Z,18.71
2023-05-07T08:58:59.577Z,18.38
2023-05-07T09:01:27.955Z,18.75
2023-05-07T09:03:55.936Z,18.95
2023-05-07T09:06:23.739Z,18.87
2023-05-07T09:08:52.122Z,19.32
2023-05-07T09:11:25.817Z,19.91
2023-05-07T09:13:57.030Z,20.37
2023-05-07T09:16:25.962Z,20.61
2023-05-07T09:18:54.979Z,21.08
2023-05-07T09:21:23.900Z,21.17
2023-05-07T09:23:56.667Z,21.44
2023-05-07T09:26:29.822Z,21.65
2023-05-07T09:28:56.481Z,21.65
2023-05-07T09:31:24.712Z,21.19
2023-05-07T09:33:53.802Z,21.22
2023-05-07T09:36:20.315Z,21.28
2023-05-07T09:38:47.349Z,21.17
2023-05-07T09:41:14.045Z,21.37
2023-05-07T09:43:55.044Z,21.44
2023-05-07T09:46:31.240Z,21.20
2023-05-07T09:49:02.728Z,20.95
2023-05-07T09:51:44.236Z,21.07
2023-05-07T09:54:11.667Z,20.69
2023-05-07T09:56:42.617Z,21.00
2023-05-07T09:59:14.113Z,21.19
2023-05-07T10:01:45.643Z,21.30
2023-05-07T10:04:15.072Z,21.51
2023-05-07T10:06:44.421Z,21.45
2023-05-07T10:09:12.059Z,21.64
2023-05-07T10:11:39.090Z,22.04
2023-05-07T10:14:09.068Z,21.83
2023-05-07T10:16:37.586Z,22.49
2023-05-07T10:19:10.803Z,22.37
2023-05-07T10:21:39.827Z,22.42
2023-05-07T10:24:15.023Z,22.58
2023-05-07T10:26:46.459Z,21.95
2023-05-07T10:29:25.592Z,22.03
2023-05-07T10:31:59.198Z,22.03
2023-05-07T10:34:30.745Z,22.32
2023-05-07T10:36:58.019Z,22.98
2023-05-07T10:39:26.464Z,23.26
2023-05-07T10:41:53.727Z,23.58
2023-05-07T10:44:30.356Z,23.40
2023-05-07T10:47:13.394Z,23.19
2023-05-07T10:49:46.376Z,23.20
2023-05-07T10:52:27.589Z,23.51
2023-05-07T10:55:16.327Z,22.98
2023-05-07T10:57:45.119Z,23.27
2023-05-07T11:00:22.450Z,23.09
2023-05-07T11:03:02.774Z,23.55
2023-05-07T11:05:38.298Z,23.94
2023-05-07T11:08:15.199Z,24.19
2023-05-07T11:10:53.725Z,24.55
2023-05-07T11:13:53.170Z,24.32
2023-05-07T11:16:44.291Z,23.77
2023-05-07T11:19:54.903Z,24.12
2023-05-07T11:22:42.609Z,23.47
2023-05-07T11:25:23.274Z,22.24
2023-05-07T11:27:56.426Z,21.50
2023-05-07T11:30:23.484Z,21.18
2023-05-07T11:32:50.155Z,20.93
2023-05-07T11:35:18.839Z,20.88
2023-05-07T11:37:48.317Z,20.48
2023-05-07T11:40:15.786Z,20.47
2023-05-07T11:42:44.117Z,20.47
2023-05-07T11:45:11.339Z,20.47
2023-05-07T11:47:38.216Z,20.21
2023-05-07T11:50:09.041Z,20.11
2023-05-07T11:52:36.926Z,19.92
2023-05-07T11:55:07.040Z,19.80
2023-05-07T11:57:36.624Z,19.58
2023-05-07T12:00:06.565Z,19.18
2023-05-07T12:02:43.296Z,18.92
2023-05-07T12:05:10.915Z,18.88
2023-05-07T12:07:37.704Z,18.89
2023-05-07T12:10:07.763Z,18.72
2023-05-07T12:12:46.861Z,18.75
2023-05-07T12:15:17.265Z,18.69
2023-05-07T12:17:47.082Z,18.88
2023-05-07T12:20:13.767Z,19.01
2023-05-07T12:22:40.376Z,18.84
2023-05-07T12:25:07.936Z,18.97
2023-05-07T12:27:38.152Z,19.29
2023-05-07T12:30:04.825Z,19.14
2023-05-07T12:32:31.551Z,19.35
2023-05-07T12:34:58.070Z,19.37
2023-05-07T12:37:27.552Z,19.45
2023-05-07T12:40:12.237Z,19.61
2023-05-07T12:42:41.084Z,19.48
2023-05-07T12:45:17.265Z,19.39
2023-05-07T12:47:47.918Z,19.68
2023-05-07T12:50:16.399Z,19.79
2023-05-07T12:52:45.275Z,19.74
2023-05-07T12:55:15.983Z,19.80
2023-05-07T12:57:46.370Z,19.74
2023-05-07T13:00:13.898Z,19.36
2023-05-07T13:02:42.798Z,19.13
2023-05-07T13:05:09.916Z,18.95
2023-05-07T13:07:37.943Z,18.75
2023-05-07T13:10:05.291Z,18.54
2023-05-07T13:12:31.897Z,18.42
2023-05-07T13:14:58.425Z,18.31
2023-05-07T13:17:24.958Z,18.16
2023-05-07T13:19:51.503Z,17.92
2023-05-07T13:22:17.977Z,17.97
2023-05-07T13:24:44.713Z,17.85
2023-05-07T13:27:11.304Z,17.63
2023-05-07T13:29:37.752Z,17.56
2023-05-07T13:32:04.539Z,17.40
2023-05-07T13:34:31.133Z,17.52
2023-05-07T13:36:57.665Z,17.38
2023-05-07T13:39:24.117Z,17.37
2023-05-07T13:41:50.690Z,17.32
2023-05-07T13:44:17.167Z,16.96
2023-05-07T13:46:43.793Z,16.75
2023-05-07T13:49:12.083Z,16.37
2023-05-07T13:51:38.585Z,16.37
2023-05-07T13:54:05.412Z,16.27
2023-05-07T13:56:32.359Z,16.04
2023-05-07T13:59:00.801Z,15.93
2023-05-07T14:01:28.553Z,15.72
2023-05-07T14:03:56.452Z,15.63
2023-05-07T14:06:22.954Z,15.55
2023-05-07T14:08:49.804Z,15.54
2023-05-07T14:11:16.341Z,15.36
2023-05-07T14:13:42.815Z,15.26
2023-05-07T14:16:09.316Z,15.14
2023-05-07T14:18:37.931Z,14.98
2023-05-07T14:21:13.613Z,14.89
2023-05-07T14:23:40.334Z,14.89
2023-05-07T14:26:13.364Z,14.72
2023-05-07T14:28:40.629Z,14.76
2023-05-07T14:31:07.483Z,14.60
2023-05-07T14:33:33.997Z,14.63
2023-05-07T14:36:00.486Z,14.59
2023-05-07T14:38:26.930Z,14.53
2023-05-07T14:40:56.680Z,14.42
2023-05-07T14:43:23.442Z,14.51
2023-05-07T14:45:50.995Z,14.60
2023-05-07T14:48:20.994Z,14.70
2023-05-07T14:50:49.142Z,14.88
2023-05-07T14:53:16.591Z,14.98
2023-05-07T14:55:43.143Z,15.15
2023-05-07T14:58:09.760Z,15.14
2023-05-07T15:00:36.212Z,15.38
2023-05-07T15:03:08.253Z,15.05
2023-05-07T15:05:35.362Z,15.71
2023-05-07T15:08:01.849Z,16.33
2023-05-07T15:10:28.412Z,16.45
2023-05-07T15:12:55.059Z,16.05
2023-05-07T15:15:21.703Z,15.61
2023-05-07T15:17:48.330Z,16.40
2023-05-07T15:20:14.849Z,16.41
2023-05-07T15:22:42.701Z,16.44
2023-05-07T15:25:10.488Z,16.24
2023-05-07T15:27:37.436Z,16.17
2023-05-07T15:30:04.384Z,16.02
2023-05-07T15:32:32.084Z,15.94
2023-05-07T15:34:58.604Z,15.93
2023-05-07T15:37:25.054Z,15.90
2023-05-07T15:39:51.618Z,16.07
2023-05-07T15:42:18.167Z,16.14
2023-05-07T15:44:44.696Z,16.19
2023-05-07T15:47:11.183Z,16.40
2023-05-07T15:49:37.676Z,16.51
2023-05-07T15:52:04.305Z,16.82
2023-05-07T15:54:32.361Z,15.82
2023-05-07T15:56:58.877Z,16.37
2023-05-07T15:59:25.401Z,16.63
2023-05-07T16:01:52.496Z,16.52
2023-05-07T16:04:19.150Z,16.87
2023-05-07T16:06:47.338Z,17.02
2023-05-07T16:09:14.614Z,17.25
2023-05-07T16:11:41.094Z,17.27
2023-05-07T16:14:07.733Z,16.40
2023-05-07T16:16:35.218Z,16.10
2023-05-07T16:19:02.119Z,16.23
2023-05-07T16:21:28.938Z,16.27
2023-05-07T16:23:55.425Z,16.13
2023-05-07T16:26:22.094Z,16.04
2023-05-07T16:28:48.667Z,16.18
2023-05-07T16:31:15.198Z,16.23
2023-05-07T16:33:41.681Z,16.06
2023-05-07T16:36:08.304Z,15.94
2023-05-07T16:38:34.939Z,15.80
2023-05-07T16:41:01.901Z,16.14
2023-05-07T16:43:28.444Z,16.11
2023-05-07T16:45:55.095Z,16.04
2023-05-07T16:48:25.758Z,16.19
2023-05-07T16:50:52.303Z,16.28
2023-05-07T16:53:19.782Z,16.09
2023-05-07T16:55:46.316Z,15.78
2023-05-07T16:58:12.930Z,15.60
2023-05-07T17:00:49.891Z,15.47
2023-05-07T17:03:17.068Z,15.44
2023-05-07T17:05:43.654Z,15.37
2023-05-07T17:08:10.144Z,15.46
2023-05-07T17:10:36.615Z,15.38
2023-05-07T17:13:03.575Z,15.26
2023-05-07T17:15:30.253Z,15.28
2023-05-07T17:17:56.856Z,15.29
2023-05-07T17:20:23.455Z,15.29
2023-05-07T17:22:49.914Z,15.18
2023-05-07T17:25:21.669Z,15.25
2023-05-07T17:27:48.101Z,15.02
2023-05-07T17:30:15.725Z,14.99
2023-05-07T17:32:42.654Z,15.08
2023-05-07T17:35:09.734Z,15.15
2023-05-07T17:37:36.189Z,15.17
2023-05-07T17:40:03.156Z,15.19
2023-05-07T17:42:29.628Z,15.09
2023-05-07T17:44:56.367Z,14.93
2023-05-07T17:47:22.910Z,14.81
2023-05-07T17:49:49.392Z,14.83
2023-05-07T17:52:16.022Z,14.93
2023-05-07T17:54:42.526Z,14.95
2023-05-07T17:57:09.017Z,14.90
2023-05-07T17:59:35.482Z,14.82
2023-05-07T18:02:01.946Z,14.78
2023-05-07T18:04:28.454Z,14.89
2023-05-07T18:06:54.918Z,14.79
2023-05-07T18:09:21.397Z,14.74
2023-05-07T18:11:47.862Z,14.67
2023-05-07T18:14:14.539Z,14.62
2023-05-07T18:16:41.239Z,14.74
2023-05-07T18:19:07.863Z,14.78
2023-05-07T18:21:34.331Z,14.60
2023-05-07T18:24:00.864Z,14.52
2023-05-07T18:26:27.699Z,14.59
2023-05-07T18:28:54.176Z,14.58
2023-05-07T18:31:21.362Z,14.49
2023-05-07T18:33:47.827Z,14.46
2023-05-07T18:36:14.318Z,14.60
2023-05-07T18:38:42.605Z,14.68
2023-05-07T18:41:09.272Z,14.45
2023-05-07T18:43:35.867Z,14.36
2023-05-07T18:46:02.423Z,14.49
2023-05-07T18:48:28.939Z,14.35
2023-05-07T18:50:55.489Z,14.30
2023-05-07T18:53:21.979Z,14.21
2023-05-07T18:55:52.586Z,14.18
2023-05-07T18:58:20.136Z,14.18
2023-05-07T19:00:50.369Z,14.29
2023-05-07T19:03:17.445Z,14.20
2023-05-07T19:05:45.296Z,14.11
2023-05-07T19:08:11.887Z,14.17
2023-05-07T19:10:38.805Z,14.15
2023-05-07T19:13:05.567Z,14.24
2023-05-07T19:15:32.112Z,14.11
2023-05-07T19:17:58.635Z,14.02
2023-05-07T19:20:25.272Z,14.12
2023-05-07T19:22:51.748Z,14.23
2023-05-07T19:25:18.532Z,14.31
2023-05-07T19:27:45.115Z,14.33
2023-05-07T19:30:11.847Z,14.37
2023-05-07T19:32:38.960Z,14.40
2023-05-07T19:35:05.769Z,14.36
2023-05-07T19:37:32.277Z,14.38
2023-05-07T19:40:04.338Z,14.37
2023-05-07T19:42:31.371Z,14.39
2023-05-07T19:44:58.006Z,14.32
2023-05-07T19:47:24.508Z,14.34
2023-05-07T19:49:50.971Z,14.13
2023-05-07T19:52:17.437Z,14.09
2023-05-07T19:54:43.892Z,14.17
2023-05-07T19:57:10.485Z,14.03
2023-05-07T19:59:36.947Z,13.98
2023-05-07T20:02:03.452Z,13.91
2023-05-07T20:04:33.033Z,14.00
2023-05-07T20:06:59.966Z,13.91
2023-05-07T20:09:26.508Z,13.93
2023-05-07T20:11:53.046Z,13.79
2023-05-07T20:14:19.498Z,13.83
2023-05-07T20:16:46.016Z,13.77
2023-05-07T20:19:12.497Z,13.59
2023-05-07T20:21:38.945Z,13.58
2023-05-07T20:24:06.987Z,13.53
2023-05-07T20:26:33.484Z,13.62
2023-05-07T20:28:59.935Z,13.45
2023-05-07T20:31:26.391Z,13.54
2023-05-07T20:33:52.833Z,13.42
2023-05-07T20:36:19.350Z,13.37
2023-05-07T20:38:45.857Z,13.37
2023-05-07T20:41:14.989Z,13.21
2023-05-07T20:43:41.949Z,13.18
2023-05-07T20:46:08.605Z,13.08
2023-05-07T20:48:35.967Z,13.12
2023-05-07T20:51:03.685Z,13.10
2023-05-07T20:53:31.262Z,12.98
2023-05-07T20:55:58.783Z,12.99
2023-05-07T20:58:27.699Z,13.10
2023-05-07T21:00:55.020Z,13.06
2023-05-07T21:03:21.957Z,13.00
2023-05-07T21:05:53.129Z,12.92
2023-05-07T21:08:20.318Z,12.99
2023-05-07T21:10:47.274Z,12.90
2023-05-07T21:13:14.068Z,12.86
2023-05-07T21:15:43.667Z,12.84
2023-05-07T21:18:11.232Z,12.90
2023-05-07T21:20:38.056Z,12.83
2023-05-07T21:23:04.825Z,12.96
2023-05-07T21:25:31.394Z,12.95
2023-05-07T21:27:57.849Z,12.94
2023-05-07T21:30:24.317Z,12.84
2023-05-07T21:32:50.940Z,12.79
2023-05-07T21:35:17.407Z,12.78
2023-05-07T21:37:43.867Z,12.80
2023-05-07T21:40:10.938Z,12.78
2023-05-07T21:42:37.615Z,12.83
2023-05-07T21:45:07.267Z,12.91
2023-05-07T21:47:33.774Z,12.84
2023-05-07T21:50:01.086Z,12.76
2023-05-07T21:52:27.636Z,12.74
2023-05-07T21:54:54.220Z,12.66
2023-05-07T21:57:21.122Z,12.71
2023-05-07T21:59:47.991Z,12.63
2023-05-07T22:02:14.547Z,12.58
2023-05-07T22:04:41.014Z,12.61
2023-05-07T22:07:07.529Z,12.57
2023-05-07T22:09:34.039Z,12.62
2023-05-07T22:12:00.584Z,12.56
2023-05-07T22:14:27.044Z,12.54
2023-05-07T22:16:53.583Z,12.55
2023-05-07T22:19:20.340Z,12.47
2023-05-07T22:21:46.828Z,12.43
2023-05-07T22:24:13.296Z,12.49
2023-05-07T22:26:39.823Z,12.43
2023-05-07T22:29:06.358Z,12.48
2023-05-07T22:31:32.971Z,12.43
2023-05-07T22:33:59.402Z,12.61
2023-05-07T22:36:25.868Z,12.49
2023-05-07T22:38:52.335Z,12.43
2023-05-07T22:41:18.905Z,12.46
2023-05-07T22:43:45.424Z,12.54
2023-05-07T22:46:11.963Z,12.51
2023-05-07T22:48:38.494Z,12.48
2023-05-07T22:51:04.954Z,12.48
2023-05-07T22:53:31.417Z,12.52
2023-05-07T22:55:57.874Z,12.54
2023-05-07T22:58:24.510Z,12.48
2023-05-07T23:00:50.978Z,12.50
2023-05-07T23:03:17.684Z,12.51
2023-05-07T23:05:44.415Z,12.55
2023-05-07T23:08:11.378Z,12.57
2023-05-07T23:10:37.883Z,12.55
2023-05-07T23:13:04.677Z,12.55
2023-05-07T23:15:33.187Z,12.60
2023-05-07T23:18:00.073Z,12.58
2023-05-07T23:20:26.868Z,12.59
2023-05-07T23:22:53.389Z,12.66
2023-05-07T23:25:20.089Z,12.72
2023-05-07T23:27:49.635Z,12.65
2023-05-07T23:30:16.149Z,12.70
2023-05-07T23:32:42.689Z,12.69
2023-05-07T23:35:09.539Z,12.72
2023-05-07T23:37:36.122Z,12.74
2023-05-07T23:40:02.640Z,12.69
2023-05-07T23:42:29.075Z,12.70
2023-05-07T23:44:55.509Z,12.84
2023-05-07T23:47:22.136Z,12.73
2023-05-07T23:49:48.604Z,12.79
2023-05-07T23:52:15.090Z,12.88
2023-05-07T23:54:41.566Z,12.84
2023-05-07T23:57:08.009Z,12.83
2023-05-07T23:59:37.476Z,12.76
